Malmstrom A F B, Montana
Current Conditions -  °F | °C
As of 6:56 AM on Sunday 21 Dec 2014 (Local Time) from KGFA Reporting Station
Broken Clouds Broken Clouds  
Wind Chill: 33°   Ceiling: 22000
Heat Index: 43°   Visibility: 10mi
Dew Point: 33°   Wind: 24mph
Humidity: 69%   Direction: 230°SW
Pressure: 29.35"   Gusts: 33mph
Location:  47.5102°N, 111.1959°W
Report Text: KGFA 211356Z AUTO 23021G29KT 10SM FEW150 BKN220 06/01 A2935 RMK AO2 SLP960 T00590007
Loading
Personal Weather Stations






























Interactive Weather Map New forecast layout! Learn more

10-Day Weather Forecast

Advertisements
Track Severe Weather on mobile